Time;durP1;ratioP1;P1;durP2;ratioP2;P2;SDS_P1;SDS_P2;PMS_P1;PMS_P2;Temp;Humidity;BMP_temperature;BMP_pressure;BME280_temperature;BME280_humidity;BME280_pressure;Samples;Min_cycle;Max_cycle;Signal;HPM_P1;HPM_P2
2023/08/06 00:00:24;;;;;;;13.88;9.43;;;;;;;;;;5092627;28;20044;-62
2023/08/06 00:02:50;;;;;;;11.63;9.00;;;;;;;;;;5091929;28;20043;-62
2023/08/06 00:05:20;;;;;;;14.13;9.25;;;;;;;;;;5092447;28;20039;-62
2023/08/06 00:07:47;;;;;;;12.35;9.70;;;;;;;;;;5097673;28;20302;-62
2023/08/06 00:10:13;;;;;;;11.75;9.40;;;;;;;;;;5112261;28;20402;-62
2023/08/06 00:12:39;;;;;;;13.05;10.02;;;;;;;;;;5112381;28;20055;-62
2023/08/06 00:15:05;;;;;;;15.43;9.52;;;;;;;;;;5112606;28;20039;-62
2023/08/06 00:17:31;;;;;;;13.05;9.65;;;;;;;;;;5112019;28;20397;-62
2023/08/06 00:19:57;;;;;;;14.18;9.60;;;;;;;;;;5112641;28;20123;-62
2023/08/06 00:22:23;;;;;;;13.18;9.38;;;;;;;;;;5112214;28;20044;-62
2023/08/06 00:24:49;;;;;;;13.25;10.05;;;;;;;;;;5112293;28;20043;-62
2023/08/06 00:27:15;;;;;;;13.07;10.40;;;;;;;;;;5092131;28;20446;-62
2023/08/06 00:29:41;;;;;;;13.35;9.75;;;;;;;;;;5092003;28;20054;-62
2023/08/06 00:32:07;;;;;;;14.18;9.38;;;;;;;;;;5091601;28;20044;-62
2023/08/06 00:34:33;;;;;;;12.77;9.20;;;;;;;;;;5091745;28;20043;-62
2023/08/06 00:36:59;;;;;;;11.95;9.60;;;;;;;;;;5091920;28;20466;-62
2023/08/06 00:39:25;;;;;;;13.05;9.07;;;;;;;;;;5091282;28;20406;-62
2023/08/06 00:41:51;;;;;;;12.10;9.05;;;;;;;;;;5091659;28;20040;-62
2023/08/06 00:44:17;;;;;;;14.32;9.63;;;;;;;;;;5091451;28;20040;-62
2023/08/06 00:46:43;;;;;;;13.75;9.65;;;;;;;;;;5089588;28;20105;-62
2023/08/06 00:49:09;;;;;;;14.57;9.82;;;;;;;;;;5091403;28;20040;-62
2023/08/06 00:51:35;;;;;;;13.20;9.80;;;;;;;;;;5091409;28;20071;-62
2023/08/06 00:54:01;;;;;;;14.85;9.23;;;;;;;;;;5089483;28;20537;-62
2023/08/06 00:56:28;;;;;;;13.32;9.65;;;;;;;;;;5091259;28;20087;-62
2023/08/06 00:58:55;;;;;;;13.00;9.13;;;;;;;;;;5091368;28;20113;-62
2023/08/06 01:01:21;;;;;;;16.15;9.65;;;;;;;;;;5090915;28;20042;-62
2023/08/06 01:03:47;;;;;;;11.40;9.10;;;;;;;;;;5091496;28;20036;-62
2023/08/06 01:06:13;;;;;;;11.27;8.63;;;;;;;;;;5091009;28;20036;-62
2023/08/06 01:08:59;;;;;;;11.85;9.00;;;;;;;;;;5103465;28;20482;-62
2023/08/06 01:11:27;;;;;;;8.90;7.90;;;;;;;;;;5111455;28;20035;-62
2023/08/06 01:14:05;;;;;;;12.50;9.02;;;;;;;;;;5110800;28;20051;-62
2023/08/06 01:16:33;;;;;;;11.32;8.98;;;;;;;;;;5110768;28;20602;-62
2023/08/06 01:18:59;;;;;;;14.57;9.57;;;;;;;;;;5111407;28;20078;-62
2023/08/06 01:21:25;;;;;;;12.70;9.02;;;;;;;;;;5111340;28;20043;-62
2023/08/06 01:23:51;;;;;;;11.30;9.18;;;;;;;;;;5110813;28;20039;-62
2023/08/06 01:26:23;;;;;;;10.68;8.30;;;;;;;;;;5099170;28;20131;-62
2023/08/06 01:28:49;;;;;;;13.15;9.07;;;;;;;;;;5090912;28;20656;-62
2023/08/06 01:31:19;;;;;;;10.93;8.98;;;;;;;;;;5090318;28;20097;-62
2023/08/06 01:33:48;;;;;;;11.85;8.93;;;;;;;;;;5090470;28;20426;-62
2023/08/06 01:36:16;;;;;;;11.18;8.05;;;;;;;;;;5089867;28;20090;-62
2023/08/06 01:38:42;;;;;;;9.75;8.70;;;;;;;;;;5090161;28;20027;-62
2023/08/06 01:41:08;;;;;;;10.90;8.13;;;;;;;;;;5090606;28;20389;-62
2023/08/06 01:43:34;;;;;;;11.25;8.93;;;;;;;;;;5090330;28;20110;-62
2023/08/06 01:46:00;;;;;;;10.18;8.32;;;;;;;;;;5089981;28;20547;-62
2023/08/06 01:48:26;;;;;;;10.73;7.80;;;;;;;;;;5089944;28;20043;-62
2023/08/06 01:50:51;;;;;;;12.57;8.35;;;;;;;;;;5090368;28;20145;-62
2023/08/06 01:53:18;;;;;;;13.93;8.52;;;;;;;;;;5089849;28;20325;-62
2023/08/06 01:55:48;;;;;;;10.27;8.40;;;;;;;;;;5090069;28;20048;-62
2023/08/06 01:58:14;;;;;;;12.45;8.30;;;;;;;;;;5090160;28;20051;-62
2023/08/06 02:00:41;;;;;;;10.30;7.82;;;;;;;;;;5089655;28;20040;-62
2023/08/06 02:03:07;;;;;;;12.07;8.23;;;;;;;;;;5090075;28;20203;-62
2023/08/06 02:05:33;;;;;;;13.25;8.07;;;;;;;;;;5090076;28;20032;-62
2023/08/06 02:07:59;;;;;;;9.45;7.82;;;;;;;;;;5096614;28;20047;-62
2023/08/06 02:10:24;;;;;;;11.45;8.82;;;;;;;;;;5143321;27;20046;-62
2023/08/06 02:12:50;;;;;;;11.38;8.75;;;;;;;;;;5109760;28;20056;-62
2023/08/06 02:15:16;;;;;;;10.02;8.25;;;;;;;;;;5109523;28;20043;-62
2023/08/06 02:17:42;;;;;;;9.82;7.97;;;;;;;;;;5110063;28;20040;-62
2023/08/06 02:20:09;;;;;;;13.55;8.40;;;;;;;;;;5110190;28;20042;-62
2023/08/06 02:22:34;;;;;;;10.95;8.23;;;;;;;;;;5109178;28;20047;-62
2023/08/06 02:25:00;;;;;;;11.07;8.32;;;;;;;;;;5109645;28;20039;-62
2023/08/06 02:27:26;;;;;;;12.88;8.52;;;;;;;;;;5109974;28;20044;-62
2023/08/06 02:29:52;;;;;;;11.80;8.88;;;;;;;;;;5109610;28;20043;-62
2023/08/06 02:32:18;;;;;;;11.95;8.23;;;;;;;;;;5109620;28;20071;-62
2023/08/06 02:34:44;;;;;;;11.07;8.77;;;;;;;;;;5109843;28;20039;-62
2023/08/06 02:37:11;;;;;;;13.38;8.73;;;;;;;;;;5109347;28;20039;-62
2023/08/06 02:39:39;;;;;;;11.00;8.73;;;;;;;;;;5109751;28;20032;-62
2023/08/06 02:42:05;;;;;;;11.05;8.50;;;;;;;;;;5109841;28;20478;-62
2023/08/06 02:44:31;;;;;;;15.77;9.93;;;;;;;;;;5109240;28;20031;-62
2023/08/06 02:46:57;;;;;;;10.55;9.10;;;;;;;;;;5108811;28;20051;-62
2023/08/06 02:49:23;;;;;;;10.27;8.80;;;;;;;;;;5109701;28;20065;-62
2023/08/06 02:51:49;;;;;;;13.75;9.25;;;;;;;;;;5107697;28;20070;-62
2023/08/06 02:54:15;;;;;;;10.80;8.98;;;;;;;;;;5109525;28;20470;-62
2023/08/06 02:56:44;;;;;;;11.95;8.98;;;;;;;;;;5109525;28;20436;-62
2023/08/06 02:59:10;;;;;;;12.82;9.70;;;;;;;;;;5109142;28;20118;-62
2023/08/06 03:01:36;;;;;;;12.00;9.38;;;;;;;;;;5109619;28;20449;-62
2023/08/06 03:04:02;;;;;;;10.60;8.88;;;;;;;;;;5109564;28;20071;-62
2023/08/06 03:06:28;;;;;;;11.02;8.90;;;;;;;;;;5108831;28;20050;-62
2023/08/06 03:08:54;;;;;;;13.80;9.50;;;;;;;;;;5109546;28;20044;-62
2023/08/06 03:11:21;;;;;;;14.80;10.38;;;;;;;;;;5109332;28;20579;-62
2023/08/06 03:13:47;;;;;;;12.18;9.25;;;;;;;;;;5108838;28;20055;-62
2023/08/06 03:16:13;;;;;;;13.07;9.88;;;;;;;;;;5109171;28;20398;-62
2023/08/06 03:18:39;;;;;;;15.65;9.77;;;;;;;;;;5109410;28;20036;-62
2023/08/06 03:21:05;;;;;;;14.48;10.00;;;;;;;;;;5109744;28;20093;-62
2023/08/06 03:23:31;;;;;;;11.43;9.98;;;;;;;;;;5108918;28;20454;-62
2023/08/06 03:26:02;;;;;;;14.02;9.88;;;;;;;;;;5109526;28;20044;-62
2023/08/06 03:28:28;;;;;;;12.07;10.10;;;;;;;;;;5109389;28;20039;-62
2023/08/06 03:31:01;;;;;;;10.20;9.10;;;;;;;;;;5108843;28;20528;-62
2023/08/06 03:33:27;;;;;;;12.30;9.48;;;;;;;;;;5109190;28;20413;-62
2023/08/06 03:35:53;;;;;;;12.32;9.95;;;;;;;;;;5109138;28;20371;-62
2023/08/06 03:38:19;;;;;;;11.68;9.75;;;;;;;;;;5108758;28;20088;-62
2023/08/06 03:40:46;;;;;;;15.40;10.23;;;;;;;;;;5109281;28;20079;-62
2023/08/06 03:43:12;;;;;;;14.30;9.05;;;;;;;;;;5109444;28;20385;-62
2023/08/06 03:45:38;;;;;;;12.80;9.93;;;;;;;;;;5108748;28;20404;-62
2023/08/06 03:48:04;;;;;;;14.15;10.10;;;;;;;;;;5109005;28;20043;-62
2023/08/06 03:50:30;;;;;;;12.55;9.27;;;;;;;;;;5108924;28;20470;-62
2023/08/06 03:52:56;;;;;;;14.15;9.65;;;;;;;;;;5108620;28;20351;-62
2023/08/06 03:55:22;;;;;;;13.02;10.18;;;;;;;;;;5109040;28;20040;-62
2023/08/06 03:57:48;;;;;;;12.70;9.30;;;;;;;;;;5109851;28;20114;-62
2023/08/06 04:00:14;;;;;;;13.35;9.63;;;;;;;;;;5112414;28;20165;-62
2023/08/06 04:02:40;;;;;;;15.88;10.00;;;;;;;;;;5112640;28;20066;-62
2023/08/06 04:05:06;;;;;;;14.38;10.27;;;;;;;;;;5112822;28;20469;-62
2023/08/06 04:07:32;;;;;;;12.52;10.77;;;;;;;;;;5112373;28;20071;-62
2023/08/06 04:09:59;;;;;;;12.93;10.40;;;;;;;;;;5113139;28;20073;-62
2023/08/06 04:12:25;;;;;;;13.40;10.70;;;;;;;;;;5112344;28;20070;-62
2023/08/06 04:14:54;;;;;;;12.73;10.25;;;;;;;;;;5112019;28;20047;-62
2023/08/06 04:17:21;;;;;;;14.20;10.73;;;;;;;;;;5112474;28;20526;-62
2023/08/06 04:19:54;;;;;;;13.80;10.23;;;;;;;;;;5112658;28;20058;-62
2023/08/06 04:22:20;;;;;;;14.43;11.10;;;;;;;;;;5112015;28;20489;-62
2023/08/06 04:24:46;;;;;;;15.40;10.25;;;;;;;;;;5112381;28;20039;-62
2023/08/06 04:27:12;;;;;;;13.63;11.43;;;;;;;;;;5092680;28;20040;-62
2023/08/06 04:29:38;;;;;;;16.92;11.18;;;;;;;;;;5091494;28;20069;-62
2023/08/06 04:32:06;;;;;;;14.77;10.75;;;;;;;;;;5091764;28;20044;-62
2023/08/06 04:34:32;;;;;;;15.43;10.77;;;;;;;;;;5124385;27;20164;-62
2023/08/06 04:36:58;;;;;;;16.17;11.00;;;;;;;;;;5091273;28;20396;-62
2023/08/06 04:39:24;;;;;;;16.73;11.20;;;;;;;;;;5124596;27;20471;-62
2023/08/06 04:41:50;;;;;;;13.30;11.00;;;;;;;;;;5091941;28;20089;-62
2023/08/06 04:44:15;;;;;;;13.60;11.48;;;;;;;;;;5091154;28;20040;-62
2023/08/06 04:46:41;;;;;;;12.65;10.57;;;;;;;;;;5091385;28;20494;-62
2023/08/06 04:49:07;;;;;;;16.05;11.63;;;;;;;;;;5091482;28;20486;-62
2023/08/06 04:51:33;;;;;;;13.55;10.93;;;;;;;;;;5091056;28;20047;-62
2023/08/06 04:53:59;;;;;;;15.75;12.10;;;;;;;;;;5091362;28;20110;-62
2023/08/06 04:56:25;;;;;;;13.23;11.43;;;;;;;;;;5091338;28;20028;-62
2023/08/06 04:58:51;;;;;;;14.65;11.90;;;;;;;;;;5091016;27;20044;-62
2023/08/06 05:01:17;;;;;;;14.15;11.35;;;;;;;;;;5091374;28;20042;-62
2023/08/06 05:03:43;;;;;;;16.65;12.32;;;;;;;;;;5091320;28;20032;-62
2023/08/06 05:06:10;;;;;;;15.75;12.45;;;;;;;;;;5090826;28;20070;-62
2023/08/06 05:08:36;;;;;;;15.40;11.55;;;;;;;;;;5103001;28;20051;-62
2023/08/06 05:11:02;;;;;;;17.42;12.60;;;;;;;;;;5110998;28;20040;-62
2023/08/06 05:13:28;;;;;;;19.15;12.65;;;;;;;;;;5110810;28;20051;-62
2023/08/06 05:15:54;;;;;;;15.93;12.05;;;;;;;;;;5109968;28;20036;-62
2023/08/06 05:18:21;;;;;;;16.13;12.15;;;;;;;;;;5111734;28;20043;-62
2023/08/06 05:20:46;;;;;;;16.30;12.25;;;;;;;;;;5110967;28;20031;-62
2023/08/06 05:23:12;;;;;;;17.17;12.55;;;;;;;;;;5111196;28;20076;-62
2023/08/06 05:25:38;;;;;;;16.17;12.60;;;;;;;;;;5104985;28;20036;-62
2023/08/06 05:28:05;;;;;;;16.38;11.95;;;;;;;;;;5090255;28;20150;-62
2023/08/06 05:30:31;;;;;;;15.15;11.60;;;;;;;;;;5090790;28;20040;-62
2023/08/06 05:32:57;;;;;;;16.70;12.18;;;;;;;;;;5090842;28;20040;-62
2023/08/06 05:35:23;;;;;;;19.13;12.57;;;;;;;;;;5090148;28;20128;-62
2023/08/06 05:37:49;;;;;;;16.48;12.55;;;;;;;;;;5090454;28;20043;-62
2023/08/06 05:40:15;;;;;;;16.08;12.55;;;;;;;;;;5090504;28;20411;-62
2023/08/06 05:42:41;;;;;;;18.15;12.00;;;;;;;;;;5090047;28;20386;-62
2023/08/06 05:45:07;;;;;;;21.55;12.50;;;;;;;;;;5090294;28;20036;-62
2023/08/06 05:47:33;;;;;;;15.35;12.65;;;;;;;;;;5090354;28;20473;-62
2023/08/06 05:49:59;;;;;;;15.25;12.45;;;;;;;;;;5089979;28;20044;-62
2023/08/06 05:52:25;;;;;;;19.50;13.35;;;;;;;;;;5090141;28;20086;-62
2023/08/06 05:54:51;;;;;;;23.08;13.02;;;;;;;;;;5090186;28;20565;-62
2023/08/06 05:57:18;;;;;;;15.95;12.35;;;;;;;;;;5089538;28;20398;-62
2023/08/06 05:59:44;;;;;;;15.73;12.75;;;;;;;;;;5090172;28;20086;-62
2023/08/06 06:02:10;;;;;;;15.57;12.70;;;;;;;;;;5090239;28;20043;-62
2023/08/06 06:04:36;;;;;;;17.63;13.18;;;;;;;;;;5089647;28;20200;-62
2023/08/06 06:07:02;;;;;;;15.23;13.50;;;;;;;;;;5122832;27;20075;-62
2023/08/06 06:09:28;;;;;;;19.30;13.25;;;;;;;;;;5109587;28;20192;-62
2023/08/06 06:11:54;;;;;;;18.98;13.77;;;;;;;;;;5109703;28;20065;-62
2023/08/06 06:14:20;;;;;;;17.55;13.00;;;;;;;;;;5110049;28;20122;-62
2023/08/06 06:16:46;;;;;;;18.95;13.57;;;;;;;;;;5110177;28;20048;-62
2023/08/06 06:19:12;;;;;;;17.05;14.02;;;;;;;;;;5109689;28;20406;-62
2023/08/06 06:21:39;;;;;;;18.73;14.77;;;;;;;;;;5109843;28;20092;-62
2023/08/06 06:24:05;;;;;;;18.90;14.38;;;;;;;;;;5110185;28;20046;-62
2023/08/06 06:26:32;;;;;;;18.02;15.07;;;;;;;;;;5131706;27;20441;-62
2023/08/06 06:28:59;;;;;;;19.20;14.70;;;;;;;;;;5109719;28;20126;-62
2023/08/06 06:31:25;;;;;;;17.58;14.38;;;;;;;;;;5110007;28;20048;-62
2023/08/06 06:33:54;;;;;;;19.38;14.43;;;;;;;;;;5109177;28;20533;-62
2023/08/06 06:36:20;;;;;;;17.63;14.57;;;;;;;;;;5109794;28;20059;-62
2023/08/06 06:38:46;;;;;;;20.50;14.30;;;;;;;;;;5109910;28;20476;-62
2023/08/06 06:41:12;;;;;;;16.92;13.40;;;;;;;;;;5109335;28;20031;-62
2023/08/06 06:43:39;;;;;;;19.48;14.40;;;;;;;;;;5109560;28;20063;-62
2023/08/06 06:46:05;;;;;;;18.30;14.25;;;;;;;;;;5109938;28;20549;-62
2023/08/06 06:48:32;;;;;;;20.85;14.27;;;;;;;;;;5109079;28;20092;-62
2023/08/06 06:50:58;;;;;;;15.13;12.80;;;;;;;;;;5109796;28;20035;-62
2023/08/06 06:53:27;;;;;;;14.80;13.10;;;;;;;;;;5109697;28;20443;-62
2023/08/06 06:55:56;;;;;;;17.95;12.98;;;;;;;;;;5109241;28;20458;-62
2023/08/06 06:58:22;;;;;;;13.77;11.43;;;;;;;;;;5109285;28;20066;-62
2023/08/06 07:00:48;;;;;;;13.57;11.70;;;;;;;;;;5109563;28;20035;-62
2023/08/06 07:03:18;;;;;;;14.27;11.73;;;;;;;;;;5109281;28;20370;-62
2023/08/06 07:05:44;;;;;;;18.65;11.90;;;;;;;;;;5109288;28;20039;-62
2023/08/06 07:08:11;;;;;;;15.75;12.27;;;;;;;;;;5109368;28;20051;-62
2023/08/06 07:10:37;;;;;;;14.10;12.60;;;;;;;;;;5109551;28;20164;-62
2023/08/06 07:13:03;;;;;;;14.75;12.48;;;;;;;;;;5108843;28;20130;-62
2023/08/06 07:15:29;;;;;;;14.77;12.38;;;;;;;;;;5109554;28;20044;-62
2023/08/06 07:17:55;;;;;;;14.70;13.20;;;;;;;;;;5109548;28;20044;-62
2023/08/06 07:20:21;;;;;;;14.50;11.52;;;;;;;;;;5107665;28;20520;-62
2023/08/06 07:22:47;;;;;;;22.38;13.20;;;;;;;;;;5109447;28;20167;-62
2023/08/06 07:25:13;;;;;;;16.75;13.43;;;;;;;;;;5109438;28;20035;-62
2023/08/06 07:27:39;;;;;;;13.55;10.95;;;;;;;;;;5108876;28;20475;-62
2023/08/06 07:30:05;;;;;;;16.60;11.80;;;;;;;;;;5109459;28;20058;-62
2023/08/06 07:32:31;;;;;;;16.33;12.30;;;;;;;;;;5109637;28;20122;-62
2023/08/06 07:35:00;;;;;;;12.90;11.57;;;;;;;;;;5112884;28;20039;-62
2023/08/06 07:37:28;;;;;;;13.13;11.35;;;;;;;;;;5113265;28;20478;-62
2023/08/06 07:39:54;;;;;;;13.52;11.43;;;;;;;;;;5113465;27;20064;-62
2023/08/06 07:42:20;;;;;;;14.10;11.77;;;;;;;;;;5112470;28;20123;-62
2023/08/06 07:44:56;;;;;;;11.70;10.50;;;;;;;;;;5113166;28;20401;-62
2023/08/06 07:47:22;;;;;;;13.25;10.80;;;;;;;;;;5113129;28;20118;-62
2023/08/06 07:49:48;;;;;;;11.50;10.30;;;;;;;;;;5112686;28;20565;-62
2023/08/06 07:52:14;;;;;;;12.18;10.88;;;;;;;;;;5113064;28;20122;-62
2023/08/06 07:54:40;;;;;;;14.27;11.77;;;;;;;;;;5112974;28;20374;-62
2023/08/06 07:57:06;;;;;;;16.27;11.77;;;;;;;;;;5112592;28;20468;-62
2023/08/06 07:59:32;;;;;;;13.68;11.60;;;;;;;;;;5112810;28;20397;-62
2023/08/06 08:01:59;;;;;;;13.80;10.98;;;;;;;;;;5113005;28;20534;-62
2023/08/06 08:04:25;;;;;;;13.07;11.77;;;;;;;;;;5112224;28;20061;-62
2023/08/06 08:06:51;;;;;;;12.70;11.05;;;;;;;;;;5112869;28;20409;-62
2023/08/06 08:09:17;;;;;;;13.18;11.10;;;;;;;;;;5112875;28;20046;-62
2023/08/06 08:11:43;;;;;;;13.05;10.27;;;;;;;;;;5145157;27;20525;-62
2023/08/06 08:14:09;;;;;;;12.15;10.50;;;;;;;;;;5112969;28;20059;-62
2023/08/06 08:16:35;;;;;;;11.93;10.55;;;;;;;;;;5112628;28;20478;-62
2023/08/06 08:19:01;;;;;;;12.00;10.00;;;;;;;;;;5112314;28;20038;-62
2023/08/06 08:21:27;;;;;;;10.52;9.43;;;;;;;;;;5112626;28;20039;-62
2023/08/06 08:23:53;;;;;;;11.30;10.20;;;;;;;;;;5112300;28;20044;-62
2023/08/06 08:26:19;;;;;;;11.00;9.80;;;;;;;;;;5099901;28;20044;-62
2023/08/06 08:28:45;;;;;;;10.68;9.48;;;;;;;;;;5091837;28;20048;-62
2023/08/06 08:31:12;;;;;;;11.63;9.43;;;;;;;;;;5091902;28;20486;-62
2023/08/06 08:33:38;;;;;;;11.18;9.25;;;;;;;;;;5091432;28;20040;-62
2023/08/06 08:36:04;;;;;;;12.25;10.30;;;;;;;;;;5091609;28;20470;-62
2023/08/06 08:38:30;;;;;;;9.80;8.80;;;;;;;;;;5091964;28;20040;-62
2023/08/06 08:40:57;;;;;;;10.18;8.93;;;;;;;;;;5091376;28;20047;-62
2023/08/06 08:43:23;;;;;;;11.23;9.15;;;;;;;;;;5091537;28;20038;-62
2023/08/06 08:45:54;;;;;;;9.35;7.80;;;;;;;;;;5091687;28;20547;-62
2023/08/06 08:48:20;;;;;;;9.40;8.50;;;;;;;;;;5090915;28;20051;-62
2023/08/06 08:50:47;;;;;;;10.15;8.32;;;;;;;;;;5091545;28;20486;-62
2023/08/06 08:53:14;;;;;;;9.75;8.73;;;;;;;;;;5091220;28;20036;-62
2023/08/06 08:55:41;;;;;;;10.32;8.07;;;;;;;;;;5091168;28;20091;-62
2023/08/06 08:58:07;;;;;;;10.52;8.32;;;;;;;;;;5091401;28;20177;-62
2023/08/06 09:00:33;;;;;;;10.18;8.15;;;;;;;;;;5091545;28;20380;-62
2023/08/06 09:02:59;;;;;;;10.18;8.90;;;;;;;;;;5090853;28;20035;-62
2023/08/06 09:05:29;;;;;;;9.30;8.40;;;;;;;;;;5091285;28;20075;-62
2023/08/06 09:07:55;;;;;;;8.70;7.80;;;;;;;;;;5096558;28;20082;-62
2023/08/06 09:10:23;;;;;;;8.63;7.68;;;;;;;;;;5111125;28;20043;-62
2023/08/06 09:12:51;;;;;;;8.13;7.10;;;;;;;;;;5110998;28;20100;-62
2023/08/06 09:15:17;;;;;;;9.32;7.07;;;;;;;;;;5110924;28;20062;-62
2023/08/06 09:17:43;;;;;;;7.88;7.07;;;;;;;;;;5110775;28;20043;-62
2023/08/06 09:20:11;;;;;;;8.63;7.30;;;;;;;;;;5111268;28;20042;-62
2023/08/06 09:22:36;;;;;;;8.85;8.05;;;;;;;;;;5111234;28;20454;-62
2023/08/06 09:25:04;;;;;;;8.30;7.50;;;;;;;;;;5109583;28;20096;-62
2023/08/06 09:27:30;;;;;;;9.57;8.18;;;;;;;;;;5090809;28;20048;-62
2023/08/06 09:29:56;;;;;;;8.52;7.65;;;;;;;;;;5090671;28;20043;-62
2023/08/06 09:32:22;;;;;;;8.15;7.28;;;;;;;;;;5090357;28;20150;-62
2023/08/06 09:34:55;;;;;;;8.80;6.65;;;;;;;;;;5090538;28;20032;-62
2023/08/06 09:37:22;;;;;;;8.50;6.93;;;;;;;;;;5090553;28;20282;-62
2023/08/06 09:39:48;;;;;;;6.55;5.95;;;;;;;;;;5090085;28;20046;-62
2023/08/06 09:42:15;;;;;;;7.40;6.68;;;;;;;;;;5090453;28;20529;-62
2023/08/06 09:44:41;;;;;;;8.85;6.35;;;;;;;;;;5090442;28;20499;-62
2023/08/06 09:47:07;;;;;;;7.10;6.40;;;;;;;;;;5089917;28;20482;-62
2023/08/06 09:49:33;;;;;;;9.25;7.00;;;;;;;;;;5090305;28;20047;-62
2023/08/06 09:51:59;;;;;;;7.75;6.80;;;;;;;;;;5090396;28;20533;-62
2023/08/06 09:54:30;;;;;;;7.35;6.65;;;;;;;;;;5089856;28;20048;-62
2023/08/06 09:56:56;;;;;;;9.23;7.07;;;;;;;;;;5089560;28;20052;-62
2023/08/06 09:59:26;;;;;;;7.55;6.85;;;;;;;;;;5090268;28;20042;-62
2023/08/06 10:01:52;;;;;;;10.73;7.70;;;;;;;;;;5089807;28;20444;-62
2023/08/06 10:04:18;;;;;;;8.10;5.90;;;;;;;;;;5090283;28;20085;-62
2023/08/06 10:06:50;;;;;;;7.18;6.47;;;;;;;;;;5088838;28;20048;-62
2023/08/06 10:09:16;;;;;;;7.00;6.22;;;;;;;;;;5139586;27;20066;-62
2023/08/06 10:11:47;;;;;;;8.13;6.82;;;;;;;;;;5109938;28;20113;-62
2023/08/06 10:14:15;;;;;;;7.18;5.93;;;;;;;;;;5110201;28;20122;-62
2023/08/06 10:16:42;;;;;;;6.68;5.70;;;;;;;;;;5110044;28;20043;-62
2023/08/06 10:19:10;;;;;;;8.15;6.47;;;;;;;;;;5110034;28;20097;-62
2023/08/06 10:21:36;;;;;;;7.03;6.32;;;;;;;;;;5110097;28;20058;-62
2023/08/06 10:24:03;;;;;;;6.53;5.88;;;;;;;;;;5109683;28;20397;-62
2023/08/06 10:26:30;;;;;;;8.80;6.20;;;;;;;;;;5096614;28;20406;-62
2023/08/06 10:28:56;;;;;;;10.30;6.43;;;;;;;;;;5089690;28;20134;-62
2023/08/06 10:31:43;;;;;;;8.80;5.97;;;;;;;;;;5089331;28;20082;-62
2023/08/06 10:34:09;;;;;;;6.90;5.00;;;;;;;;;;5088545;28;20442;-62
2023/08/06 10:36:35;;;;;;;6.55;4.22;;;;;;;;;;5089557;28;20078;-62
2023/08/06 10:39:02;;;;;;;6.53;4.13;;;;;;;;;;5089247;28;20482;-62
2023/08/06 10:41:31;;;;;;;5.00;4.43;;;;;;;;;;5089566;28;20105;-62
2023/08/06 10:44:08;;;;;;;6.60;4.43;;;;;;;;;;5089544;28;20062;-62
2023/08/06 10:46:34;;;;;;;5.38;3.30;;;;;;;;;;5089021;28;20051;-62
2023/08/06 10:49:00;;;;;;;5.15;3.45;;;;;;;;;;5089427;28;20367;-62
2023/08/06 10:51:27;;;;;;;3.58;3.10;;;;;;;;;;5089436;28;20036;-62
2023/08/06 10:53:53;;;;;;;8.20;3.42;;;;;;;;;;5089025;28;20246;-62
2023/08/06 10:56:21;;;;;;;3.85;3.00;;;;;;;;;;5089240;28;20398;-62
2023/08/06 10:58:48;;;;;;;2.72;2.53;;;;;;;;;;5089728;28;20051;-62
2023/08/06 11:01:15;;;;;;;3.45;2.80;;;;;;;;;;5121791;27;20074;-62
2023/08/06 11:03:41;;;;;;;4.10;2.50;;;;;;;;;;5089132;28;20040;-62
2023/08/06 11:06:08;;;;;;;4.30;2.35;;;;;;;;;;5089348;28;20037;-62
2023/08/06 11:08:35;;;;;;;3.40;2.28;;;;;;;;;;5103031;28;20036;-63
2023/08/06 11:11:11;;;;;;;3.45;2.47;;;;;;;;;;5113988;28;20358;-63
2023/08/06 11:13:38;;;;;;;2.47;2.28;;;;;;;;;;5113451;28;20089;-62
2023/08/06 11:16:05;;;;;;;3.80;2.55;;;;;;;;;;5113321;28;20031;-62
2023/08/06 11:18:31;;;;;;;2.75;2.30;;;;;;;;;;5146657;27;20123;-62
2023/08/06 11:20:59;;;;;;;3.80;2.30;;;;;;;;;;5113451;28;20050;-62
2023/08/06 11:23:26;;;;;;;3.50;2.92;;;;;;;;;;5146298;27;20059;-63
2023/08/06 11:25:53;;;;;;;7.07;2.75;;;;;;;;;;5113503;28;20559;-62
2023/08/06 11:28:21;;;;;;;3.28;2.13;;;;;;;;;;5113077;28;20058;-62
2023/08/06 11:30:47;;;;;;;4.32;2.50;;;;;;;;;;5113220;28;20066;-62
2023/08/06 11:33:13;;;;;;;5.07;2.30;;;;;;;;;;5113415;28;20047;-62
2023/08/06 11:35:39;;;;;;;3.15;2.17;;;;;;;;;;5113398;27;20046;-62
2023/08/06 11:38:06;;;;;;;3.65;2.30;;;;;;;;;;5112837;28;20238;-62
2023/08/06 11:40:36;;;;;;;2.88;2.25;;;;;;;;;;5113310;28;20043;-62
2023/08/06 11:43:02;;;;;;;4.88;2.10;;;;;;;;;;5113124;28;20082;-62
2023/08/06 11:45:28;;;;;;;5.10;2.20;;;;;;;;;;5112857;28;20063;-62
2023/08/06 11:47:54;;;;;;;4.32;2.20;;;;;;;;;;5113040;28;20097;-62
2023/08/06 11:50:26;;;;;;;4.05;2.30;;;;;;;;;;5112896;28;20401;-62
2023/08/06 11:53:00;;;;;;;2.78;2.25;;;;;;;;;;5112584;28;20500;-62
2023/08/06 11:55:28;;;;;;;4.60;2.28;;;;;;;;;;5113010;28;20066;-62
2023/08/06 11:57:54;;;;;;;4.18;2.25;;;;;;;;;;5113012;28;20047;-63
2023/08/06 12:00:21;;;;;;;4.38;2.30;;;;;;;;;;5112646;28;20421;-63
2023/08/06 12:02:49;;;;;;;3.42;2.63;;;;;;;;;;5112795;28;20521;-63
2023/08/06 12:05:16;;;;;;;2.58;2.38;;;;;;;;;;5113088;28;20054;-62
2023/08/06 12:07:43;;;;;;;2.72;2.10;;;;;;;;;;5112125;28;20430;-62
2023/08/06 12:10:09;;;;;;;2.65;2.30;;;;;;;;;;5112537;28;20042;-62
2023/08/06 12:12:36;;;;;;;3.08;1.75;;;;;;;;;;5112395;28;20056;-62
2023/08/06 12:15:03;;;;;;;4.57;2.05;;;;;;;;;;5112226;28;20066;-62
2023/08/06 12:17:29;;;;;;;2.00;1.80;;;;;;;;;;5112519;28;20035;-62
2023/08/06 12:19:55;;;;;;;3.22;1.90;;;;;;;;;;5112179;28;20044;-62
2023/08/06 12:22:21;;;;;;;2.42;2.22;;;;;;;;;;5111686;28;20412;-62
2023/08/06 12:24:48;;;;;;;3.85;2.30;;;;;;;;;;5112594;28;20039;-62
2023/08/06 12:27:15;;;;;;;4.43;1.88;;;;;;;;;;5112021;28;20409;-62
2023/08/06 12:29:42;;;;;;;2.20;2.00;;;;;;;;;;5111895;28;20065;-63
2023/08/06 12:32:08;;;;;;;2.63;1.75;;;;;;;;;;5112296;28;20051;-63
2023/08/06 12:34:34;;;;;;;3.28;1.98;;;;;;;;;;5112140;28;20399;-63
2023/08/06 12:37:00;;;;;;;2.42;1.85;;;;;;;;;;5110325;28;20382;-62
2023/08/06 12:39:28;;;;;;;2.50;1.75;;;;;;;;;;5112165;28;20040;-62
2023/08/06 12:41:54;;;;;;;2.10;1.70;;;;;;;;;;5112142;28;20118;-63
2023/08/06 12:44:20;;;;;;;3.05;1.70;;;;;;;;;;5111468;28;20067;-62
2023/08/06 12:46:46;;;;;;;3.47;1.70;;;;;;;;;;5111964;28;20077;-62
2023/08/06 12:49:12;;;;;;;2.80;2.10;;;;;;;;;;5111953;28;20040;-62
2023/08/06 12:51:38;;;;;;;2.38;1.60;;;;;;;;;;5111627;28;20046;-62
2023/08/06 12:54:04;;;;;;;3.58;1.90;;;;;;;;;;5111866;28;20039;-62
2023/08/06 12:56:30;;;;;;;4.55;1.98;;;;;;;;;;5111647;28;20486;-62
2023/08/06 12:58:56;;;;;;;3.63;2.22;;;;;;;;;;5111492;28;20051;-62
2023/08/06 13:01:22;;;;;;;4.78;2.00;;;;;;;;;;5111716;28;20032;-62
2023/08/06 13:03:48;;;;;;;3.00;1.92;;;;;;;;;;5111578;28;20031;-62
2023/08/06 13:06:14;;;;;;;3.72;2.00;;;;;;;;;;5111119;28;20089;-62
2023/08/06 13:08:40;;;;;;;3.05;2.28;;;;;;;;;;5111281;28;20036;-62
2023/08/06 13:11:06;;;;;;;4.65;2.38;;;;;;;;;;5111570;28;20116;-62
2023/08/06 13:13:32;;;;;;;5.30;2.33;;;;;;;;;;5143864;27;20138;-62
2023/08/06 13:15:58;;;;;;;3.13;2.10;;;;;;;;;;5111350;28;20090;-62
2023/08/06 13:18:24;;;;;;;4.18;2.10;;;;;;;;;;5111340;28;20067;-62
2023/08/06 13:20:54;;;;;;;3.95;2.00;;;;;;;;;;5111076;28;20390;-62
2023/08/06 13:23:20;;;;;;;3.03;2.20;;;;;;;;;;5111205;28;20098;-62
2023/08/06 13:25:46;;;;;;;3.80;2.45;;;;;;;;;;5104261;28;20543;-62
2023/08/06 13:28:13;;;;;;;5.60;2.40;;;;;;;;;;5090290;28;20126;-62
2023/08/06 13:30:41;;;;;;;3.10;2.10;;;;;;;;;;5089618;28;20044;-62
2023/08/06 13:33:11;;;;;;;3.28;2.15;;;;;;;;;;5090635;28;20186;-62
2023/08/06 13:35:37;;;;;;;2.92;2.30;;;;;;;;;;5090150;28;20094;-63
2023/08/06 13:38:03;;;;;;;2.90;1.90;;;;;;;;;;5090669;28;20398;-63
2023/08/06 13:40:30;;;;;;;2.63;2.08;;;;;;;;;;5090566;28;20040;-63
2023/08/06 13:42:57;;;;;;;4.15;2.00;;;;;;;;;;5088856;28;20043;-63
2023/08/06 13:45:23;;;;;;;3.58;1.90;;;;;;;;;;5090845;28;20115;-63
2023/08/06 13:47:49;;;;;;;2.08;1.88;;;;;;;;;;5090380;28;20119;-63
2023/08/06 13:50:14;;;;;;;2.63;2.00;;;;;;;;;;5090436;28;20052;-63
2023/08/06 13:52:40;;;;;;;3.42;1.95;;;;;;;;;;5090111;28;20093;-63
2023/08/06 13:55:07;;;;;;;3.47;2.00;;;;;;;;;;5090295;28;20505;-63
2023/08/06 13:57:33;;;;;;;3.80;1.85;;;;;;;;;;5090154;28;20036;-62
2023/08/06 13:59:59;;;;;;;3.55;1.95;;;;;;;;;;5089943;28;20145;-62
2023/08/06 14:02:25;;;;;;;3.80;2.10;;;;;;;;;;5090208;28;20047;-62
2023/08/06 14:04:53;;;;;;;2.20;2.00;;;;;;;;;;5090080;28;20035;-62
2023/08/06 14:07:19;;;;;;;3.40;1.88;;;;;;;;;;5090994;28;20122;-62
2023/08/06 14:09:45;;;;;;;11.45;2.60;;;;;;;;;;5110623;28;20118;-62
2023/08/06 14:12:11;;;;;;;2.78;2.22;;;;;;;;;;5109962;28;20467;-63
2023/08/06 14:14:37;;;;;;;2.30;2.10;;;;;;;;;;5109799;28;20358;-63
2023/08/06 14:17:03;;;;;;;4.18;1.92;;;;;;;;;;5110200;28;20542;-63
2023/08/06 14:19:29;;;;;;;2.95;2.25;;;;;;;;;;5110110;28;20115;-63
2023/08/06 14:21:56;;;;;;;3.38;2.05;;;;;;;;;;5109825;28;20048;-63
2023/08/06 14:24:22;;;;;;;2.38;1.90;;;;;;;;;;5109881;28;20405;-63
2023/08/06 14:26:48;;;;;;;3.42;2.10;;;;;;;;;;5110055;28;20043;-63